Terminal Aerodrome Forecast
Issued by NWS

Home | Current Version | Previous Version | Text Only | Print | Product List | Glossary On
Versions: 1 2 3 4 5 6 7 8 9 10 11 12 13 14 15 16 17 18 19
000
FTUS41 KGYX 301720
TAFLEB
TAF
KLEB 301720Z 3018/3118 VRB03KT P6SM SCT050 SCT250
     FM310600 00000KT 1 1/2SM BR FEW001
     FM310800 00000KT 1/4SM FG OVC001
     FM311330 25005KT P6SM SCT250
     FM311600 28009G16KT P6SM SCT250=

USA.gov is the U.S. government's official web portal to all federal, state and local government web resources and services.